createdAt,value
2022-09-17T00:03:00.163Z,48.8
2022-09-17T00:08:18.318Z,48.9
2022-09-17T00:13:36.441Z,48.5
2022-09-17T00:18:54.879Z,48.9
2022-09-17T00:24:13.607Z,48.9
2022-09-17T00:29:31.723Z,48.6
2022-09-17T00:34:50.167Z,48.4
2022-09-17T00:40:09.108Z,49.5
2022-09-17T00:45:27.565Z,49.5
2022-09-17T00:50:46.005Z,48.8
2022-09-17T00:56:04.473Z,48.7
2022-09-17T01:01:22.839Z,49.4
2022-09-17T01:06:41.311Z,50
2022-09-17T01:12:00.030Z,49.6
2022-09-17T01:17:18.149Z,48.8
2022-09-17T01:22:36.589Z,49.9
2022-09-17T01:27:55.055Z,49.1
2022-09-17T01:33:13.442Z,48.4
2022-09-17T01:38:31.886Z,49.8
2022-09-17T01:43:50.339Z,48.4
2022-09-17T01:49:08.449Z,49.3
2022-09-17T01:54:26.888Z,48.4
2022-09-17T01:59:45.906Z,48.8
2022-09-17T02:05:04.014Z,49.6
2022-09-17T02:10:22.455Z,49.5
2022-09-17T02:15:41.175Z,49
2022-09-17T02:20:59.300Z,49
2022-09-17T02:26:17.747Z,49.4
2022-09-17T02:31:36.761Z,48.8
2022-09-17T02:36:54.620Z,48.6
2022-09-17T02:42:13.064Z,49.1
2022-09-17T02:47:31.516Z,49.1
2022-09-17T02:52:49.653Z,49.3
2022-09-17T02:58:08.368Z,49.4
2022-09-17T03:03:26.815Z,48.8
2022-09-17T03:08:45.203Z,49.2
2022-09-17T03:14:03.637Z,48.3
2022-09-17T03:19:22.345Z,48.4
2022-09-17T03:24:40.744Z,48.1
2022-09-17T03:29:59.456Z,48.9
2022-09-17T03:35:17.909Z,49.2
2022-09-17T03:40:36.212Z,48.7
2022-09-17T03:45:54.655Z,49
2022-09-17T03:51:13.110Z,49.2
2022-09-17T03:56:30.943Z,49
2022-09-17T04:01:50.137Z,48.8
2022-09-17T04:07:08.596Z,49.2
2022-09-17T04:12:26.986Z,48.1
2022-09-17T04:17:45.714Z,49.4
2022-09-17T04:23:04.718Z,48.7
2022-09-17T04:28:22.559Z,48.9
2022-09-17T04:33:40.719Z,48.4
2022-09-17T04:38:58.889Z,48.8
2022-09-17T04:44:17.011Z,49
2022-09-17T04:49:35.163Z,48.2
2022-09-17T04:54:53.624Z,48.1
2022-09-17T05:00:12.026Z,48.6
2022-09-17T05:05:30.455Z,48.5
2022-09-17T05:10:49.458Z,48
2022-09-17T05:16:07.769Z,48.2
2022-09-17T05:21:26.178Z,49.7
2022-09-17T05:26:44.643Z,48.4
2022-09-17T05:32:03.044Z,48.8
2022-09-17T05:37:21.481Z,48.9
2022-09-17T05:42:39.936Z,49.3
2022-09-17T05:47:58.058Z,48.5
2022-09-17T05:53:16.500Z,48.9
2022-09-17T05:58:35.235Z,48.4
2022-09-17T06:03:53.631Z,49.4
2022-09-17T06:09:12.352Z,49
2022-09-17T06:14:31.089Z,48.8
2022-09-17T06:19:48.918Z,50
2022-09-17T06:25:07.080Z,49.4
2022-09-17T06:30:25.548Z,50.6
2022-09-17T06:35:43.660Z,49.3
2022-09-17T06:41:02.105Z,49.4
2022-09-17T06:46:21.125Z,49.7
2022-09-17T06:51:39.351Z,49.9
2022-09-17T06:56:58.064Z,50
2022-09-17T07:02:16.495Z,49.9
2022-09-17T07:07:34.945Z,49.7
2022-09-17T07:12:53.102Z,50.5
2022-09-17T07:18:11.549Z,50.2
2022-09-17T07:23:29.944Z,49.8
2022-09-17T07:28:48.105Z,50.5
2022-09-17T07:34:07.099Z,50.2
2022-09-17T07:39:25.229Z,48.9
2022-09-17T07:44:43.937Z,48.8
2022-09-17T07:50:02.935Z,49.7
2022-09-17T07:55:21.331Z,50
2022-09-17T08:00:40.048Z,50.4
2022-09-17T08:05:58.502Z,50.2
2022-09-17T08:11:55.877Z,49
2022-09-17T08:17:14.440Z,50.6
2022-09-17T08:22:32.588Z,50.5
2022-09-17T08:27:50.982Z,49.4
2022-09-17T08:33:09.148Z,50.4
2022-09-17T08:38:27.601Z,49.4
2022-09-17T08:43:46.003Z,49.7
2022-09-17T08:49:04.444Z,49.4
2022-09-17T08:54:22.924Z,50
2022-09-17T08:59:41.602Z,49.1
2022-09-17T09:04:59.749Z,49.6
2022-09-17T09:10:17.928Z,49.4
2022-09-17T09:15:36.622Z,49.3
2022-09-17T09:20:55.061Z,49.2
2022-09-17T09:26:13.530Z,49.6
2022-09-17T09:31:31.751Z,49.6
2022-09-17T09:36:49.891Z,49.3
2022-09-17T09:42:08.351Z,48.9
2022-09-17T09:47:26.756Z,49.7
2022-09-17T09:52:45.195Z,49.8
2022-09-17T09:58:03.643Z,49
2022-09-17T10:03:22.167Z,49.4
2022-09-17T10:08:40.602Z,50.4
2022-09-17T10:13:59.202Z,50.6
2022-09-17T10:19:17.651Z,51
2022-09-17T10:24:36.103Z,51.3
2022-09-17T10:29:54.267Z,51
2022-09-17T10:35:12.669Z,51.9
2022-09-17T10:40:31.221Z,52.3
2022-09-17T10:45:49.439Z,52.2
2022-09-17T10:51:07.831Z,52.4
2022-09-17T10:56:26.559Z,51.5
2022-09-17T11:01:45.419Z,52.5
2022-09-17T11:07:03.625Z,53.2
2022-09-17T11:12:22.062Z,53
2022-09-17T11:17:41.051Z,52.9
2022-09-17T11:22:59.454Z,53.3
2022-09-17T11:28:17.787Z,52.1
2022-09-17T11:33:36.517Z,53.4
2022-09-17T11:38:54.914Z,53.4
2022-09-17T11:44:13.643Z,53.2
2022-09-17T11:49:32.435Z,52.3
2022-09-17T11:54:50.837Z,52.5
2022-09-17T12:00:09.548Z,53.6
2022-09-17T12:05:28.573Z,53.7
2022-09-17T12:10:46.693Z,53.6
2022-09-17T12:16:05.547Z,53.5
2022-09-17T12:21:23.982Z,53
2022-09-17T12:26:42.664Z,52.5
2022-09-17T12:32:00.825Z,52.5
2022-09-17T12:37:19.824Z,53.1
2022-09-17T12:42:37.943Z,53
2022-09-17T12:47:56.113Z,52.1
2022-09-17T12:53:14.573Z,52.4
2022-09-17T12:58:32.688Z,52.9
2022-09-17T13:03:51.137Z,52.7
2022-09-17T13:09:09.668Z,53.1
2022-09-17T13:14:28.068Z,53.9
2022-09-17T13:19:46.794Z,55.6
2022-09-17T13:25:05.530Z,54.9
2022-09-17T13:30:23.930Z,54.4
2022-09-17T13:35:42.096Z,55.2
2022-09-17T13:41:00.807Z,54.9
2022-09-17T13:46:19.117Z,55
2022-09-17T13:51:37.559Z,55.3
2022-09-17T13:56:56.293Z,54.8
2022-09-17T14:02:14.765Z,55.9
2022-09-17T14:07:33.186Z,55.4
2022-09-17T14:12:51.897Z,54.8
2022-09-17T14:18:10.569Z,54.6
2022-09-17T14:23:29.020Z,54.7
2022-09-17T14:28:47.880Z,55.4
2022-09-17T14:34:06.157Z,55.2
2022-09-17T14:39:24.593Z,54.9
2022-09-17T14:44:43.050Z,53.9
2022-09-17T14:50:01.450Z,54.4
2022-09-17T14:55:19.908Z,54.8
2022-09-17T15:00:38.917Z,53.6
2022-09-17T15:05:57.308Z,53.8
2022-09-17T15:11:15.751Z,54.3
2022-09-17T15:16:34.581Z,53.8
2022-09-17T15:21:52.744Z,53.8
2022-09-17T15:27:10.910Z,54.3
2022-09-17T15:32:29.634Z,53
2022-09-17T15:38:24.045Z,53.6
2022-09-17T15:43:42.076Z,54
2022-09-17T15:49:01.424Z,54.2
2022-09-17T15:54:19.403Z,54.8
2022-09-17T15:59:37.619Z,55.1
2022-09-17T16:04:56.014Z,55.4
2022-09-17T16:10:14.141Z,54.1
2022-09-17T16:15:32.579Z,55
2022-09-17T16:20:51.057Z,54.4
2022-09-17T16:26:09.461Z,54
2022-09-17T16:31:28.084Z,52.9
2022-09-17T16:36:46.273Z,54.9
2022-09-17T16:42:05.017Z,54.3
2022-09-17T16:47:23.456Z,54.6
2022-09-17T16:52:41.914Z,52.4
2022-09-17T16:58:00.062Z,53
2022-09-17T17:03:19.043Z,53
2022-09-17T17:08:38.082Z,54.1
2022-09-17T17:13:56.202Z,53.4
2022-09-17T17:19:14.922Z,53.4
2022-09-17T17:24:33.667Z,53.1
2022-09-17T17:29:51.790Z,54.2
2022-09-17T17:35:10.222Z,54.3
2022-09-17T17:40:29.081Z,53.9
2022-09-17T17:45:47.518Z,53.8
2022-09-17T17:51:05.959Z,54.3
2022-09-17T17:56:24.104Z,54
2022-09-17T18:01:42.330Z,53
2022-09-17T18:07:01.084Z,53
2022-09-17T18:12:24.968Z,52.9
2022-09-17T18:17:45.092Z,53.1
2022-09-17T18:23:03.534Z,53.1
2022-09-17T18:28:22.253Z,53.4
2022-09-17T18:33:40.376Z,51.7
2022-09-17T18:39:57.284Z,52
2022-09-17T18:45:15.874Z,52.4
2022-09-17T18:50:34.004Z,52.5
2022-09-17T18:55:52.725Z,51.7
2022-09-17T19:01:11.516Z,52.6
2022-09-17T19:06:30.251Z,53.3
2022-09-17T19:11:48.968Z,52.4
2022-09-17T19:17:07.446Z,53.4
2022-09-17T19:22:25.850Z,53.1
2022-09-17T19:27:44.294Z,52.7
2022-09-17T19:33:02.760Z,53
2022-09-17T19:38:20.884Z,52.6
2022-09-17T19:43:39.044Z,51.6
2022-09-17T19:48:57.229Z,52
2022-09-17T19:54:15.378Z,52.4
2022-09-17T19:59:34.084Z,51.7
2022-09-17T20:04:52.561Z,52.1
2022-09-17T20:10:10.967Z,53
2022-09-17T20:15:29.685Z,51.6
2022-09-17T20:20:48.416Z,52.2
2022-09-17T20:26:06.532Z,51.4
2022-09-17T20:31:25.083Z,51.1
2022-09-17T20:36:43.834Z,51.3
2022-09-17T20:42:02.237Z,51
2022-09-17T20:47:20.680Z,51.7
2022-09-17T20:52:39.133Z,52.4
2022-09-17T20:57:57.531Z,52.3
2022-09-17T21:03:15.690Z,52.2
2022-09-17T21:08:34.127Z,52.5
2022-09-17T21:13:52.527Z,52.1
2022-09-17T21:19:10.964Z,51.8
2022-09-17T21:24:29.458Z,51.8
2022-09-17T21:29:47.580Z,51.6
2022-09-17T21:35:05.742Z,52.5
2022-09-17T21:40:24.787Z,51.7
2022-09-17T21:45:42.939Z,52.4
2022-09-17T21:51:01.659Z,52.6
2022-09-17T21:56:20.108Z,51.7
2022-09-17T22:01:38.364Z,51.7
2022-09-17T22:06:56.785Z,52
2022-09-17T22:12:14.955Z,52.4
2022-09-17T22:17:33.625Z,52.6
2022-09-17T22:22:52.064Z,51.4
2022-09-17T22:28:22.233Z,50.9
2022-09-17T22:33:40.627Z,51.7
2022-09-17T22:38:58.803Z,51
2022-09-17T22:44:17.332Z,51.9
2022-09-17T22:49:35.735Z,50.7
2022-09-17T22:54:54.454Z,51
2022-09-17T23:00:12.921Z,51
2022-09-17T23:05:31.038Z,51.2
2022-09-17T23:10:49.757Z,51.9
2022-09-17T23:16:08.474Z,51.7
2022-09-17T23:21:26.896Z,50.7
2022-09-17T23:26:45.345Z,52.1
2022-09-17T23:32:03.507Z,52.3
2022-09-17T23:37:21.909Z,51.9
2022-09-17T23:42:40.344Z,52.1
2022-09-17T23:47:58.782Z,51.2
2022-09-17T23:53:16.634Z,51.9
2022-09-17T23:58:35.342Z,51.9
